Latest Weather Observations for Darwin Harbour

IDD60801

Issued at 1:01 am CST Saturday 15 June 2024 (issued every 10 minutes, with the page automatically refreshed every 10 minutes)

About weather observations | Map of weather stations | Latest weather observations for NT | Other Formats
Station Details ID: 014072 Name: DARWIN NTC AWS Lat: -12.47 Lon: 130.85 Height: 0.0 m
Data from the previous 72 hours. | See also: Recent months for locations in Northern Territory
Date/Time
CST
Temp
°C
App
Temp
°C
Dew
Point
°C
Rel
Hum
%
Delta-T
°C
Wind Press
QNH
hPa
Press
MSL
hPa
Rain since
9am
mm
Dir  Spd
km/h
Gust
km/h
Spd
kts
Gust
kts
15/01:00am - - - - - S 11 13 6 7 - - -
15/12:30am - - - - - S 7 9 4 5 - - -
15/12:00am - - - - - S 6 7 3 4 - - -
 
Date/Time
CST
Temp
°C
App
Temp
°C
Dew
Point
°C
Rel
Hum
%
Delta-T
°C
Wind Press
QNH
hPa
Press
MSL
hPa
Rain since
9am
mm
Dir  Spd
km/h
Gust
km/h
Spd
kts
Gust
kts
14/11:30pm - - - - - SW 6 7 3 4 - - -
14/11:00pm - - - - - SW 6 7 3 4 - - -
14/10:30pm - - - - - WSW 6 7 3 4 - - -
14/10:00pm - - - - - SW 7 9 4 5 - - -
14/09:30pm - - - - - SW 6 7 3 4 - - -
14/09:00pm - - - - - SW 7 11 4 6 - - -
14/08:30pm - - - - - S 4 6 2 3 - - -
14/08:00pm - - - - - SSW 6 11 3 6 - - -
14/07:30pm - - - - - NE 7 19 4 10 - - -
14/07:00pm - - - - - NE 9 20 5 11 - - -
14/06:30pm - - - - - NE 11 20 6 11 - - -
14/06:00pm - - - - - NNE 11 19 6 10 - - -
14/05:30pm - - - - - NNW 7 15 4 8 - - -
14/05:00pm - - - - - NNW 11 17 6 9 - - -
14/04:30pm - - - - - NNW 13 19 7 10 - - -
14/04:00pm - - - - - NW 13 20 7 11 - - -
14/03:30pm - - - - - NW 11 19 6 10 - - -
14/03:00pm - - - - - WNW 9 13 5 7 - - -
14/02:30pm - - - - - W 9 15 5 8 - - -
14/02:00pm - - - - - ENE 7 22 4 12 - - -
14/01:30pm - - - - - E 15 20 8 11 - - -
14/01:00pm - - - - - E 20 26 11 14 - - -
14/12:30pm - - - - - E 22 30 12 16 - - -
14/12:00pm - - - - - E 20 26 11 14 - - -
14/11:30am - - - - - SE 11 15 6 8 - - -
14/11:00am - - - - - SSE 9 11 5 6 - - -
14/10:30am - - - - - S 7 9 4 5 - - -
14/10:00am - - - - - SE 9 11 5 6 - - -
14/09:30am - - - - - ENE 6 9 3 5 - - -
14/09:00am - - - - - ENE 6 13 3 7 - - -
14/08:30am - - - - - E 7 11 4 6 - - -
14/08:00am - - - - - ENE 7 11 4 6 - - -
14/07:30am - - - - - ESE 6 6 3 3 - - -
14/07:00am - - - - - ENE 6 7 3 4 - - -
14/06:30am - - - - - ENE 4 7 2 4 - - -
14/06:00am - - - - - E 4 7 2 4 - - -
14/05:30am - - - - - SE 7 9 4 5 - - -
14/05:00am - - - - - ENE 6 7 3 4 - - -
14/04:30am - - - - - ENE 6 9 3 5 - - -
14/04:00am - - - - - E 6 7 3 4 - - -
14/03:30am - - - - - E 6 7 3 4 - - -
14/03:00am - - - - - ENE 4 7 2 4 - - -
14/02:30am - - - - - ENE 4 6 2 3 - - -
14/02:00am - - - - - ENE 4 7 2 4 - - -
14/01:30am - - - - - ENE 4 6 2 3 - - -
14/01:00am - - - - - NE 4 6 2 3 - - -
14/12:30am - - - - - ESE 4 6 2 3 - - -
14/12:00am - - - - - SSE 4 6 2 3 - - -
 
Date/Time
CST
Temp
°C
App
Temp
°C
Dew
Point
°C
Rel
Hum
%
Delta-T
°C
Wind Press
QNH
hPa
Press
MSL
hPa
Rain since
9am
mm
Dir  Spd
km/h
Gust
km/h
Spd
kts
Gust
kts
13/11:30pm - - - - - S 4 7 2 4 - - -
13/11:00pm - - - - - SW 2 7 1 4 - - -
13/10:30pm - - - - - SW 2 6 1 3 - - -
13/10:00pm - - - - - SW 2 4 1 2 - - -
13/09:30pm - - - - - W 2 4 1 2 - - -
13/09:00pm - - - - - W 4 4 2 2 - - -
13/08:30pm - - - - - NNE 2 7 1 4 - - -
13/08:00pm - - - - - NNE 7 11 4 6 - - -
13/07:30pm - - - - - NE 11 19 6 10 - - -
13/07:00pm - - - - - NNE 9 17 5 9 - - -
13/06:30pm - - - - - NNE 9 17 5 9 - - -
13/06:00pm - - - - - N 13 19 7 10 - - -
13/05:30pm - - - - - N 9 17 5 9 - - -
13/05:00pm - - - - - NW 11 20 6 11 - - -
13/04:30pm - - - - - NW 11 22 6 12 - - -
13/04:00pm - - - - - NW 11 22 6 12 - - -
13/03:30pm - - - - - WNW 15 22 8 12 - - -
13/03:00pm - - - - - WNW 11 20 6 11 - - -
13/02:30pm - - - - - WNW 6 13 3 7 - - -
13/02:00pm - - - - - WNW 13 17 7 9 - - -
13/01:30pm - - - - - W 6 11 3 6 - - -
13/01:00pm - - - - - W 7 9 4 5 - - -
13/12:30pm - - - - - WNW 7 11 4 6 - - -
13/12:00pm - - - - - WSW 4 7 2 4 - - -
13/11:30am - - - - - SSW 2 6 1 3 - - -
13/11:00am - - - - - SSE 4 7 2 4 - - -
13/10:30am - - - - - SSE 4 7 2 4 - - -
13/10:00am - - - - - SSE 4 7 2 4 - - -
13/09:30am - - - - - ESE 4 6 2 3 - - -
13/09:00am - - - - - ESE 6 9 3 5 - - -
13/08:30am - - - - - ENE 2 6 1 3 - - -
13/08:00am - - - - - ENE 4 7 2 4 - - -
13/07:30am - - - - - E 9 11 5 6 - - -
13/07:00am - - - - - ESE 9 11 5 6 - - -
13/06:30am - - - - - SE 7 9 4 5 - - -
13/06:00am - - - - - SE 4 7 2 4 - - -
13/05:30am - - - - - SSE 6 9 3 5 - - -
13/05:00am - - - - - SE 7 11 4 6 - - -
13/04:30am - - - - - E 7 9 4 5 - - -
13/04:00am - - - - - NE 4 9 2 5 - - -
13/03:30am - - - - - ESE 7 9 4 5 - - -
13/03:00am - - - - - ESE 7 9 4 5 - - -
13/02:30am - - - - - ESE 6 7 3 4 - - -
13/02:00am - - - - - ENE 2 6 1 3 - - -
13/01:30am - - - - - ENE 4 7 2 4 - - -
13/01:00am - - - - - NE 6 9 3 5 - - -
13/12:30am - - - - - W 2 4 1 2 - - -
13/12:00am - - - - - SW 7 9 4 5 - - -
 
Date/Time
CST
Temp
°C
App
Temp
°C
Dew
Point
°C
Rel
Hum
%
Delta-T
°C
Wind Press
QNH
hPa
Press
MSL
hPa
Rain since
9am
mm
Dir  Spd
km/h
Gust
km/h
Spd
kts
Gust
kts
12/11:30pm - - - - - SW 11 15 6 8 - - -
12/11:00pm - - - - - WSW 7 11 4 6 - - -
12/10:30pm - - - - - W 6 9 3 5 - - -
12/10:00pm - - - - - WNW 6 7 3 4 - - -
12/09:30pm - - - - - W 7 9 4 5 - - -
12/09:00pm - - - - - W 7 9 4 5 - - -
12/08:30pm - - - - - W 6 7 3 4 - - -
12/08:00pm - - - - - W 6 7 3 4 - - -
12/07:30pm - - - - - NNE 9 17 5 9 - - -
12/07:00pm - - - - - NNE 11 19 6 10 - - -
12/06:30pm - - - - - N 11 19 6 10 - - -
12/06:00pm - - - - - N 13 20 7 11 - - -
12/05:30pm - - - - - N 9 20 5 11 - - -
12/05:00pm - - - - - NNW 13 20 7 11 - - -
12/04:30pm - - - - - N 15 22 8 12 - - -
12/04:00pm - - - - - NW 11 20 6 11 - - -
12/03:30pm - - - - - NW 6 15 3 8 - - -
12/03:00pm - - - - - ESE 6 9 3 5 - - -
12/02:30pm - - - - - ESE 6 9 3 5 - - -
12/02:00pm - - - - - E 15 22 8 12 - - -
12/01:30pm - - - - - E 22 26 12 14 - - -
12/01:00pm - - - - - E 24 35 13 19 - - -
12/12:30pm - - - - - SSW 6 9 3 5 - - -
12/12:00pm - - - - - SW 7 9 4 5 - - -
12/11:30am - - - - - SE 11 13 6 7 - - -
12/11:00am - - - - - SE 7 11 4 6 - - -
12/10:30am - - - - - ESE 11 13 6 7 - - -
12/10:00am - - - - - ESE 9 13 5 7 - - -
12/09:30am - - - - - ESE 9 11 5 6 - - -
12/09:00am - - - - - ESE 6 9 3 5 - - -
12/08:30am - - - - - ESE 7 11 4 6 - - -
12/08:00am - - - - - SE 11 13 6 7 - - -
12/07:30am - - - - - SE 9 11 5 6 - - -
12/07:00am - - - - - SE 7 9 4 5 - - -
12/06:30am - - - - - SE 6 9 3 5 - - -
12/06:00am - - - - - SE 7 9 4 5 - - -
12/05:30am - - - - - W 4 13 2 7 - - -
12/05:00am - - - - - SSE 4 11 2 6 - - -
12/04:30am - - - - - SSE 9 15 5 8 - - -
12/04:00am - - - - - WNW 4 7 2 4 - - -
12/03:30am - - - - - NNW 2 7 1 4 - - -
12/03:00am - - - - - SSE 9 13 5 7 - - -
12/02:30am - - - - - SE 7 11 4 6 - - -
12/02:00am - - - - - SSE 4 9 2 5 - - -
12/01:30am - - - - - NW 2 7 1 4 - - -

Other formats

Comma delimited format used in spreadsheet applications
http://www.bom.gov.au/fwo/IDD60801/IDD60801.95122.axf

JavaScript Object Notation format (JSON) in row-major order
http://www.bom.gov.au/fwo/IDD60801/IDD60801.95122.json

Data quality

Most of these data are generated automatically and are frequently updated. Quality checks on data are not normally performed. It is possible for incorrect values to appear. Refer to information at About Latest Weather Observations and please check the disclaimer before using these data.